sensor_id;sensor_type;location;lat;lon;timestamp;P1;durP1;ratioP1;P2;durP2;ratioP2
79454;SDS011;68900;52.134;5.420;2023-05-28T00:04:02;17.88;;;3.72;;
79454;SDS011;68900;52.134;5.420;2023-05-28T00:06:41;13.07;;;3.83;;
79454;SDS011;68900;52.134;5.420;2023-05-28T00:09:24;18.02;;;4.15;;
79454;SDS011;68900;52.134;5.420;2023-05-28T00:17:49;18.98;;;4.30;;
79454;SDS011;68900;52.134;5.420;2023-05-28T00:20:22;15.70;;;4.15;;
79454;SDS011;68900;52.134;5.420;2023-05-28T00:33:21;17.48;;;5.15;;
79454;SDS011;68900;52.134;5.420;2023-05-28T00:39:04;11.98;;;3.85;;
79454;SDS011;68900;52.134;5.420;2023-05-28T00:42:01;15.02;;;4.70;;
79454;SDS011;68900;52.134;5.420;2023-05-28T00:44:57;18.27;;;3.97;;
79454;SDS011;68900;52.134;5.420;2023-05-28T00:47:40;15.65;;;4.97;;
79454;SDS011;68900;52.134;5.420;2023-05-28T00:50:12;13.90;;;3.85;;
79454;SDS011;68900;52.134;5.420;2023-05-28T00:53:03;14.40;;;3.90;;
79454;SDS011;68900;52.134;5.420;2023-05-28T00:55:40;14.38;;;4.43;;
79454;SDS011;68900;52.134;5.420;2023-05-28T00:58:07;10.13;;;4.05;;
79454;SDS011;68900;52.134;5.420;2023-05-28T01:00:37;12.55;;;4.18;;
79454;SDS011;68900;52.134;5.420;2023-05-28T01:03:31;16.08;;;4.20;;
79454;SDS011;68900;52.134;5.420;2023-05-28T01:06:01;16.13;;;3.92;;
79454;SDS011;68900;52.134;5.420;2023-05-28T01:08:30;14.98;;;3.95;;
79454;SDS011;68900;52.134;5.420;2023-05-28T01:10:57;14.77;;;4.07;;
79454;SDS011;68900;52.134;5.420;2023-05-28T01:13:23;15.43;;;4.50;;
79454;SDS011;68900;52.134;5.420;2023-05-28T01:16:00;15.68;;;3.55;;
79454;SDS011;68900;52.134;5.420;2023-05-28T01:18:32;18.00;;;4.95;;
79454;SDS011;68900;52.134;5.420;2023-05-28T01:21:05;13.40;;;4.15;;
79454;SDS011;68900;52.134;5.420;2023-05-28T01:23:45;15.60;;;4.43;;
79454;SDS011;68900;52.134;5.420;2023-05-28T01:26:22;14.32;;;4.78;;
79454;SDS011;68900;52.134;5.420;2023-05-28T01:28:49;15.05;;;4.57;;
79454;SDS011;68900;52.134;5.420;2023-05-28T01:31:19;15.43;;;3.30;;
79454;SDS011;68900;52.134;5.420;2023-05-28T01:33:45;11.75;;;4.10;;
79454;SDS011;68900;52.134;5.420;2023-05-28T01:36:27;13.93;;;4.20;;
79454;SDS011;68900;52.134;5.420;2023-05-28T01:38:57;17.45;;;3.92;;
79454;SDS011;68900;52.134;5.420;2023-05-28T01:41:26;12.20;;;4.03;;
79454;SDS011;68900;52.134;5.420;2023-05-28T01:43:53;15.98;;;4.47;;
79454;SDS011;68900;52.134;5.420;2023-05-28T01:46:21;15.27;;;4.40;;
79454;SDS011;68900;52.134;5.420;2023-05-28T01:48:55;12.13;;;4.20;;
79454;SDS011;68900;52.134;5.420;2023-05-28T01:51:34;11.73;;;3.53;;
79454;SDS011;68900;52.134;5.420;2023-05-28T01:54:01;13.73;;;4.05;;
79454;SDS011;68900;52.134;5.420;2023-05-28T01:56:28;14.50;;;4.28;;
79454;SDS011;68900;52.134;5.420;2023-05-28T01:58:54;13.95;;;4.22;;
79454;SDS011;68900;52.134;5.420;2023-05-28T02:01:28;20.60;;;5.28;;
79454;SDS011;68900;52.134;5.420;2023-05-28T02:03:59;15.43;;;3.78;;
79454;SDS011;68900;52.134;5.420;2023-05-28T02:06:38;10.98;;;3.65;;
79454;SDS011;68900;52.134;5.420;2023-05-28T02:09:09;11.20;;;3.33;;
79454;SDS011;68900;52.134;5.420;2023-05-28T02:12:12;16.25;;;4.30;;
79454;SDS011;68900;52.134;5.420;2023-05-28T02:14:39;14.60;;;3.83;;
79454;SDS011;68900;52.134;5.420;2023-05-28T02:20:15;13.60;;;3.88;;
79454;SDS011;68900;52.134;5.420;2023-05-28T02:22:42;14.65;;;4.40;;
79454;SDS011;68900;52.134;5.420;2023-05-28T02:25:09;14.07;;;4.32;;
79454;SDS011;68900;52.134;5.420;2023-05-28T02:27:36;14.70;;;4.38;;
79454;SDS011;68900;52.134;5.420;2023-05-28T02:30:02;14.13;;;4.45;;
79454;SDS011;68900;52.134;5.420;2023-05-28T02:32:30;15.25;;;4.78;;
79454;SDS011;68900;52.134;5.420;2023-05-28T02:34:57;18.85;;;5.05;;
79454;SDS011;68900;52.134;5.420;2023-05-28T02:37:24;16.40;;;5.00;;
79454;SDS011;68900;52.134;5.420;2023-05-28T02:39:50;13.95;;;3.58;;
79454;SDS011;68900;52.134;5.420;2023-05-28T02:42:17;16.58;;;4.57;;
79454;SDS011;68900;52.134;5.420;2023-05-28T02:44:43;15.57;;;4.82;;
79454;SDS011;68900;52.134;5.420;2023-05-28T02:47:10;17.83;;;4.15;;
79454;SDS011;68900;52.134;5.420;2023-05-28T02:49:37;20.85;;;4.35;;
79454;SDS011;68900;52.134;5.420;2023-05-28T02:52:03;13.88;;;3.95;;
79454;SDS011;68900;52.134;5.420;2023-05-28T02:54:30;14.82;;;4.40;;
79454;SDS011;68900;52.134;5.420;2023-05-28T02:56:57;14.50;;;4.18;;
79454;SDS011;68900;52.134;5.420;2023-05-28T02:59:23;14.60;;;4.47;;
79454;SDS011;68900;52.134;5.420;2023-05-28T03:01:50;14.07;;;4.03;;
79454;SDS011;68900;52.134;5.420;2023-05-28T03:04:17;10.65;;;4.10;;
79454;SDS011;68900;52.134;5.420;2023-05-28T03:06:44;14.48;;;4.18;;
79454;SDS011;68900;52.134;5.420;2023-05-28T03:09:10;15.32;;;4.18;;
79454;SDS011;68900;52.134;5.420;2023-05-28T03:11:37;13.10;;;4.43;;
79454;SDS011;68900;52.134;5.420;2023-05-28T03:14:04;15.45;;;4.43;;
79454;SDS011;68900;52.134;5.420;2023-05-28T03:16:41;13.90;;;4.38;;
79454;SDS011;68900;52.134;5.420;2023-05-28T03:19:07;14.23;;;4.45;;
79454;SDS011;68900;52.134;5.420;2023-05-28T03:21:34;14.57;;;4.97;;
79454;SDS011;68900;52.134;5.420;2023-05-28T03:24:04;13.35;;;4.68;;
79454;SDS011;68900;52.134;5.420;2023-05-28T03:26:33;14.00;;;4.85;;
79454;SDS011;68900;52.134;5.420;2023-05-28T03:29:03;14.63;;;4.90;;
79454;SDS011;68900;52.134;5.420;2023-05-28T03:31:42;16.67;;;4.40;;
79454;SDS011;68900;52.134;5.420;2023-05-28T03:34:11;13.18;;;4.50;;
79454;SDS011;68900;52.134;5.420;2023-05-28T03:36:38;15.57;;;5.00;;
79454;SDS011;68900;52.134;5.420;2023-05-28T03:39:10;14.60;;;4.82;;
79454;SDS011;68900;52.134;5.420;2023-05-28T03:41:37;13.38;;;4.43;;
79454;SDS011;68900;52.134;5.420;2023-05-28T03:44:13;14.95;;;4.50;;
79454;SDS011;68900;52.134;5.420;2023-05-28T03:46:40;15.98;;;4.45;;
79454;SDS011;68900;52.134;5.420;2023-05-28T03:49:12;19.15;;;4.82;;
79454;SDS011;68900;52.134;5.420;2023-05-28T03:51:39;17.83;;;4.40;;
79454;SDS011;68900;52.134;5.420;2023-05-28T03:54:06;14.10;;;5.25;;
79454;SDS011;68900;52.134;5.420;2023-05-28T03:56:41;17.50;;;5.15;;
79454;SDS011;68900;52.134;5.420;2023-05-28T03:59:08;17.17;;;4.75;;
79454;SDS011;68900;52.134;5.420;2023-05-28T04:01:35;17.15;;;5.57;;
79454;SDS011;68900;52.134;5.420;2023-05-28T04:04:02;17.30;;;5.22;;
79454;SDS011;68900;52.134;5.420;2023-05-28T04:06:29;13.38;;;4.20;;
79454;SDS011;68900;52.134;5.420;2023-05-28T04:09:06;15.02;;;4.38;;
79454;SDS011;68900;52.134;5.420;2023-05-28T04:11:33;17.90;;;5.00;;
79454;SDS011;68900;52.134;5.420;2023-05-28T04:14:01;14.48;;;4.97;;
79454;SDS011;68900;52.134;5.420;2023-05-28T04:16:28;17.30;;;4.95;;
79454;SDS011;68900;52.134;5.420;2023-05-28T04:18:59;13.57;;;4.05;;
79454;SDS011;68900;52.134;5.420;2023-05-28T04:21:26;15.30;;;5.57;;
79454;SDS011;68900;52.134;5.420;2023-05-28T04:23:55;15.00;;;4.95;;
79454;SDS011;68900;52.134;5.420;2023-05-28T04:26:21;16.17;;;5.57;;
79454;SDS011;68900;52.134;5.420;2023-05-28T04:28:49;12.38;;;4.68;;
79454;SDS011;68900;52.134;5.420;2023-05-28T04:31:17;12.77;;;4.85;;
79454;SDS011;68900;52.134;5.420;2023-05-28T04:33:43;12.65;;;4.57;;
79454;SDS011;68900;52.134;5.420;2023-05-28T04:36:12;11.98;;;4.53;;
79454;SDS011;68900;52.134;5.420;2023-05-28T04:38:40;15.50;;;4.80;;
79454;SDS011;68900;52.134;5.420;2023-05-28T04:41:08;13.80;;;4.65;;
79454;SDS011;68900;52.134;5.420;2023-05-28T04:43:35;15.00;;;4.97;;
79454;SDS011;68900;52.134;5.420;2023-05-28T04:46:02;11.40;;;4.32;;
79454;SDS011;68900;52.134;5.420;2023-05-28T04:48:41;13.07;;;4.32;;
79454;SDS011;68900;52.134;5.420;2023-05-28T04:51:08;16.15;;;4.70;;
79454;SDS011;68900;52.134;5.420;2023-05-28T04:53:34;16.02;;;4.38;;
79454;SDS011;68900;52.134;5.420;2023-05-28T04:56:01;16.90;;;4.85;;
79454;SDS011;68900;52.134;5.420;2023-05-28T04:58:28;14.48;;;4.07;;
79454;SDS011;68900;52.134;5.420;2023-05-28T05:00:54;15.65;;;4.53;;
79454;SDS011;68900;52.134;5.420;2023-05-28T05:03:22;12.80;;;4.30;;
79454;SDS011;68900;52.134;5.420;2023-05-28T05:05:48;14.38;;;4.78;;
79454;SDS011;68900;52.134;5.420;2023-05-28T05:08:18;14.55;;;4.75;;
79454;SDS011;68900;52.134;5.420;2023-05-28T05:10:44;12.95;;;4.35;;
79454;SDS011;68900;52.134;5.420;2023-05-28T05:13:20;11.13;;;4.20;;
79454;SDS011;68900;52.134;5.420;2023-05-28T05:15:47;11.75;;;3.97;;
79454;SDS011;68900;52.134;5.420;2023-05-28T05:18:14;17.58;;;4.72;;
79454;SDS011;68900;52.134;5.420;2023-05-28T05:20:41;15.68;;;4.65;;
79454;SDS011;68900;52.134;5.420;2023-05-28T05:23:14;10.80;;;4.28;;
79454;SDS011;68900;52.134;5.420;2023-05-28T05:25:41;16.83;;;4.70;;
79454;SDS011;68900;52.134;5.420;2023-05-28T05:28:22;13.52;;;4.95;;
79454;SDS011;68900;52.134;5.420;2023-05-28T05:30:48;12.18;;;4.30;;
79454;SDS011;68900;52.134;5.420;2023-05-28T05:35:43;14.38;;;4.45;;
79454;SDS011;68900;52.134;5.420;2023-05-28T05:40:48;14.35;;;4.10;;
79454;SDS011;68900;52.134;5.420;2023-05-28T05:45:57;14.82;;;4.95;;
79454;SDS011;68900;52.134;5.420;2023-05-28T05:48:25;14.68;;;4.25;;
79454;SDS011;68900;52.134;5.420;2023-05-28T05:50:53;11.98;;;4.28;;
79454;SDS011;68900;52.134;5.420;2023-05-28T05:53:21;20.00;;;4.93;;
79454;SDS011;68900;52.134;5.420;2023-05-28T05:55:49;15.77;;;4.57;;
79454;SDS011;68900;52.134;5.420;2023-05-28T05:58:16;13.85;;;4.53;;
79454;SDS011;68900;52.134;5.420;2023-05-28T06:00:43;16.08;;;4.70;;
79454;SDS011;68900;52.134;5.420;2023-05-28T06:03:10;12.07;;;4.10;;
79454;SDS011;68900;52.134;5.420;2023-05-28T06:05:37;12.55;;;4.57;;
79454;SDS011;68900;52.134;5.420;2023-05-28T06:08:04;15.25;;;4.55;;
79454;SDS011;68900;52.134;5.420;2023-05-28T06:10:30;13.95;;;4.90;;
79454;SDS011;68900;52.134;5.420;2023-05-28T06:13:12;11.80;;;4.25;;
79454;SDS011;68900;52.134;5.420;2023-05-28T06:15:39;16.60;;;4.70;;
79454;SDS011;68900;52.134;5.420;2023-05-28T06:18:08;15.25;;;4.38;;
79454;SDS011;68900;52.134;5.420;2023-05-28T06:20:35;17.73;;;4.68;;
79454;SDS011;68900;52.134;5.420;2023-05-28T06:23:02;15.32;;;4.97;;
79454;SDS011;68900;52.134;5.420;2023-05-28T06:25:28;13.13;;;4.63;;
79454;SDS011;68900;52.134;5.420;2023-05-28T06:27:55;16.65;;;5.35;;
79454;SDS011;68900;52.134;5.420;2023-05-28T06:30:23;17.80;;;4.78;;
79454;SDS011;68900;52.134;5.420;2023-05-28T06:32:49;12.85;;;4.53;;
79454;SDS011;68900;52.134;5.420;2023-05-28T06:35:16;16.02;;;4.97;;
79454;SDS011;68900;52.134;5.420;2023-05-28T06:37:43;13.23;;;4.32;;
79454;SDS011;68900;52.134;5.420;2023-05-28T06:40:09;16.75;;;5.28;;
79454;SDS011;68900;52.134;5.420;2023-05-28T06:42:40;12.45;;;4.30;;
79454;SDS011;68900;52.134;5.420;2023-05-28T06:45:24;15.02;;;4.60;;
79454;SDS011;68900;52.134;5.420;2023-05-28T06:47:51;15.02;;;4.57;;
79454;SDS011;68900;52.134;5.420;2023-05-28T06:50:34;16.30;;;5.15;;
79454;SDS011;68900;52.134;5.420;2023-05-28T06:53:41;14.85;;;5.22;;
79454;SDS011;68900;52.134;5.420;2023-05-28T06:56:07;14.20;;;4.38;;
79454;SDS011;68900;52.134;5.420;2023-05-28T06:58:34;17.73;;;4.88;;
79454;SDS011;68900;52.134;5.420;2023-05-28T07:01:01;16.15;;;4.35;;
79454;SDS011;68900;52.134;5.420;2023-05-28T07:03:29;12.82;;;4.45;;
79454;SDS011;68900;52.134;5.420;2023-05-28T07:05:56;13.65;;;5.00;;
79454;SDS011;68900;52.134;5.420;2023-05-28T07:08:26;17.38;;;4.57;;
79454;SDS011;68900;52.134;5.420;2023-05-28T07:10:53;15.68;;;4.85;;
79454;SDS011;68900;52.134;5.420;2023-05-28T07:13:19;14.52;;;4.75;;
79454;SDS011;68900;52.134;5.420;2023-05-28T07:15:46;18.48;;;4.85;;
79454;SDS011;68900;52.134;5.420;2023-05-28T07:18:13;10.18;;;3.92;;
79454;SDS011;68900;52.134;5.420;2023-05-28T07:20:40;15.57;;;4.40;;
79454;SDS011;68900;52.134;5.420;2023-05-28T07:23:06;14.73;;;4.40;;
79454;SDS011;68900;52.134;5.420;2023-05-28T07:25:45;15.90;;;4.72;;
79454;SDS011;68900;52.134;5.420;2023-05-28T07:28:12;15.85;;;4.97;;
79454;SDS011;68900;52.134;5.420;2023-05-28T07:30:40;13.05;;;3.88;;
79454;SDS011;68900;52.134;5.420;2023-05-28T07:33:08;12.73;;;4.22;;
79454;SDS011;68900;52.134;5.420;2023-05-28T07:35:35;14.52;;;4.18;;
79454;SDS011;68900;52.134;5.420;2023-05-28T07:38:02;11.13;;;4.07;;
79454;SDS011;68900;52.134;5.420;2023-05-28T07:40:28;14.48;;;4.70;;
79454;SDS011;68900;52.134;5.420;2023-05-28T07:42:55;17.42;;;4.65;;
79454;SDS011;68900;52.134;5.420;2023-05-28T07:45:31;13.60;;;4.07;;
79454;SDS011;68900;52.134;5.420;2023-05-28T07:48:15;13.88;;;4.10;;
79454;SDS011;68900;52.134;5.420;2023-05-28T07:50:41;15.02;;;4.35;;
79454;SDS011;68900;52.134;5.420;2023-05-28T07:53:08;16.17;;;4.25;;
79454;SDS011;68900;52.134;5.420;2023-05-28T07:55:34;12.98;;;4.32;;
79454;SDS011;68900;52.134;5.420;2023-05-28T07:58:01;13.68;;;4.45;;
79454;SDS011;68900;52.134;5.420;2023-05-28T08:00:28;15.10;;;4.53;;
79454;SDS011;68900;52.134;5.420;2023-05-28T08:02:57;13.15;;;4.30;;
79454;SDS011;68900;52.134;5.420;2023-05-28T08:05:24;13.80;;;4.65;;
79454;SDS011;68900;52.134;5.420;2023-05-28T08:07:51;11.82;;;3.65;;
79454;SDS011;68900;52.134;5.420;2023-05-28T08:10:17;14.27;;;3.92;;
79454;SDS011;68900;52.134;5.420;2023-05-28T08:12:44;13.13;;;4.65;;
79454;SDS011;68900;52.134;5.420;2023-05-28T08:15:11;13.50;;;4.47;;
79454;SDS011;68900;52.134;5.420;2023-05-28T08:17:38;11.93;;;3.97;;
79454;SDS011;68900;52.134;5.420;2023-05-28T08:20:05;15.90;;;4.35;;
79454;SDS011;68900;52.134;5.420;2023-05-28T08:22:33;13.77;;;4.10;;
79454;SDS011;68900;52.134;5.420;2023-05-28T08:25:05;14.38;;;3.97;;
79454;SDS011;68900;52.134;5.420;2023-05-28T08:27:33;12.15;;;4.20;;
79454;SDS011;68900;52.134;5.420;2023-05-28T08:30:01;14.10;;;4.10;;
79454;SDS011;68900;52.134;5.420;2023-05-28T08:32:27;14.98;;;3.95;;
79454;SDS011;68900;52.134;5.420;2023-05-28T08:34:54;11.40;;;3.60;;
79454;SDS011;68900;52.134;5.420;2023-05-28T08:37:21;13.27;;;4.45;;
79454;SDS011;68900;52.134;5.420;2023-05-28T08:39:52;12.43;;;3.70;;
79454;SDS011;68900;52.134;5.420;2023-05-28T08:42:22;13.98;;;3.88;;
79454;SDS011;68900;52.134;5.420;2023-05-28T08:44:49;12.65;;;4.07;;
79454;SDS011;68900;52.134;5.420;2023-05-28T08:47:16;12.63;;;3.80;;
79454;SDS011;68900;52.134;5.420;2023-05-28T08:50:03;17.10;;;4.95;;
79454;SDS011;68900;52.134;5.420;2023-05-28T08:52:32;18.27;;;4.07;;
79454;SDS011;68900;52.134;5.420;2023-05-28T08:54:59;15.30;;;4.68;;
79454;SDS011;68900;52.134;5.420;2023-05-28T08:57:30;12.18;;;3.85;;
79454;SDS011;68900;52.134;5.420;2023-05-28T08:59:59;13.98;;;3.90;;
79454;SDS011;68900;52.134;5.420;2023-05-28T09:02:34;13.85;;;4.20;;
79454;SDS011;68900;52.134;5.420;2023-05-28T09:05:01;15.88;;;4.10;;
79454;SDS011;68900;52.134;5.420;2023-05-28T09:07:29;15.27;;;4.32;;
79454;SDS011;68900;52.134;5.420;2023-05-28T09:09:56;15.00;;;3.88;;
79454;SDS011;68900;52.134;5.420;2023-05-28T09:12:24;16.50;;;4.30;;
79454;SDS011;68900;52.134;5.420;2023-05-28T09:15:05;9.52;;;4.13;;
79454;SDS011;68900;52.134;5.420;2023-05-28T09:17:32;11.25;;;3.60;;
79454;SDS011;68900;52.134;5.420;2023-05-28T09:20:08;11.10;;;3.65;;
79454;SDS011;68900;52.134;5.420;2023-05-28T09:22:40;12.43;;;4.35;;
79454;SDS011;68900;52.134;5.420;2023-05-28T09:25:07;14.35;;;4.25;;
79454;SDS011;68900;52.134;5.420;2023-05-28T09:27:48;13.73;;;3.92;;
79454;SDS011;68900;52.134;5.420;2023-05-28T09:30:15;12.35;;;3.53;;
79454;SDS011;68900;52.134;5.420;2023-05-28T09:32:45;10.68;;;3.47;;
79454;SDS011;68900;52.134;5.420;2023-05-28T09:35:23;12.25;;;3.60;;
79454;SDS011;68900;52.134;5.420;2023-05-28T09:40:41;11.75;;;3.95;;
79454;SDS011;68900;52.134;5.420;2023-05-28T09:43:28;14.52;;;3.80;;
79454;SDS011;68900;52.134;5.420;2023-05-28T09:46:11;11.00;;;4.13;;
79454;SDS011;68900;52.134;5.420;2023-05-28T09:48:42;11.77;;;3.88;;
79454;SDS011;68900;52.134;5.420;2023-05-28T09:51:09;14.02;;;4.05;;
79454;SDS011;68900;52.134;5.420;2023-05-28T09:53:41;15.05;;;3.75;;
79454;SDS011;68900;52.134;5.420;2023-05-28T09:56:10;11.90;;;3.63;;
79454;SDS011;68900;52.134;5.420;2023-05-28T09:59:03;14.25;;;3.60;;
79454;SDS011;68900;52.134;5.420;2023-05-28T10:01:50;15.27;;;3.90;;
79454;SDS011;68900;52.134;5.420;2023-05-28T10:04:32;10.30;;;3.55;;
79454;SDS011;68900;52.134;5.420;2023-05-28T10:07:04;9.60;;;3.00;;
79454;SDS011;68900;52.134;5.420;2023-05-28T10:09:49;13.85;;;4.00;;
79454;SDS011;68900;52.134;5.420;2023-05-28T10:12:17;12.63;;;4.15;;
79454;SDS011;68900;52.134;5.420;2023-05-28T10:14:49;14.05;;;3.85;;
79454;SDS011;68900;52.134;5.420;2023-05-28T10:17:37;11.65;;;3.53;;
79454;SDS011;68900;52.134;5.420;2023-05-28T10:20:04;13.93;;;4.00;;
79454;SDS011;68900;52.134;5.420;2023-05-28T10:22:34;11.82;;;3.67;;
79454;SDS011;68900;52.134;5.420;2023-05-28T10:25:08;12.00;;;3.30;;
79454;SDS011;68900;52.134;5.420;2023-05-28T10:27:37;10.95;;;3.50;;
79454;SDS011;68900;52.134;5.420;2023-05-28T10:30:30;11.10;;;3.95;;
79454;SDS011;68900;52.134;5.420;2023-05-28T10:33:08;13.57;;;3.92;;
79454;SDS011;68900;52.134;5.420;2023-05-28T10:35:57;10.95;;;3.13;;
79454;SDS011;68900;52.134;5.420;2023-05-28T10:38:57;13.73;;;3.80;;
79454;SDS011;68900;52.134;5.420;2023-05-28T10:41:39;11.15;;;3.55;;
79454;SDS011;68900;52.134;5.420;2023-05-28T10:44:21;9.80;;;3.05;;
79454;SDS011;68900;52.134;5.420;2023-05-28T10:47:09;11.13;;;3.63;;
79454;SDS011;68900;52.134;5.420;2023-05-28T10:58:48;12.82;;;3.40;;
79454;SDS011;68900;52.134;5.420;2023-05-28T11:01:41;10.40;;;3.22;;
79454;SDS011;68900;52.134;5.420;2023-05-28T11:04:40;13.60;;;3.45;;
79454;SDS011;68900;52.134;5.420;2023-05-28T11:07:14;9.18;;;2.97;;
79454;SDS011;68900;52.134;5.420;2023-05-28T11:09:48;14.10;;;3.25;;
79454;SDS011;68900;52.134;5.420;2023-05-28T11:12:20;10.68;;;3.08;;
79454;SDS011;68900;52.134;5.420;2023-05-28T11:14:55;10.52;;;3.13;;
79454;SDS011;68900;52.134;5.420;2023-05-28T11:17:26;12.98;;;3.55;;
79454;SDS011;68900;52.134;5.420;2023-05-28T11:19:56;11.57;;;2.88;;
79454;SDS011;68900;52.134;5.420;2023-05-28T11:22:23;14.07;;;3.60;;
79454;SDS011;68900;52.134;5.420;2023-05-28T11:28:57;8.50;;;2.92;;
79454;SDS011;68900;52.134;5.420;2023-05-28T11:31:24;11.88;;;3.58;;
79454;SDS011;68900;52.134;5.420;2023-05-28T11:37:08;10.38;;;3.25;;
79454;SDS011;68900;52.134;5.420;2023-05-28T11:39:34;12.95;;;3.83;;
79454;SDS011;68900;52.134;5.420;2023-05-28T11:42:07;9.20;;;3.10;;
79454;SDS011;68900;52.134;5.420;2023-05-28T11:44:43;12.57;;;3.15;;
79454;SDS011;68900;52.134;5.420;2023-05-28T11:47:21;15.68;;;3.17;;
79454;SDS011;68900;52.134;5.420;2023-05-28T11:49:52;8.88;;;3.08;;
79454;SDS011;68900;52.134;5.420;2023-05-28T11:52:21;11.98;;;3.25;;
79454;SDS011;68900;52.134;5.420;2023-05-28T11:55:02;13.07;;;3.60;;
79454;SDS011;68900;52.134;5.420;2023-05-28T12:07:32;13.10;;;3.50;;
79454;SDS011;68900;52.134;5.420;2023-05-28T12:12:31;14.95;;;3.58;;
79454;SDS011;68900;52.134;5.420;2023-05-28T12:15:08;13.43;;;3.30;;
79454;SDS011;68900;52.134;5.420;2023-05-28T12:17:55;11.45;;;3.17;;
79454;SDS011;68900;52.134;5.420;2023-05-28T12:34:16;10.05;;;2.90;;
79454;SDS011;68900;52.134;5.420;2023-05-28T12:36:43;9.23;;;3.13;;
79454;SDS011;68900;52.134;5.420;2023-05-28T12:39:10;9.27;;;3.08;;
79454;SDS011;68900;52.134;5.420;2023-05-28T12:41:36;10.98;;;3.50;;
79454;SDS011;68900;52.134;5.420;2023-05-28T12:44:03;10.95;;;3.42;;
79454;SDS011;68900;52.134;5.420;2023-05-28T12:46:40;11.00;;;3.63;;
79454;SDS011;68900;52.134;5.420;2023-05-28T12:49:08;9.82;;;3.42;;
79454;SDS011;68900;52.134;5.420;2023-05-28T12:51:35;8.45;;;3.10;;
79454;SDS011;68900;52.134;5.420;2023-05-28T12:54:02;10.55;;;3.35;;
79454;SDS011;68900;52.134;5.420;2023-05-28T12:56:38;11.27;;;3.70;;
79454;SDS011;68900;52.134;5.420;2023-05-28T13:03:51;12.43;;;3.47;;
79454;SDS011;68900;52.134;5.420;2023-05-28T13:06:19;16.25;;;4.05;;
79454;SDS011;68900;52.134;5.420;2023-05-28T13:08:52;14.10;;;3.42;;
79454;SDS011;68900;52.134;5.420;2023-05-28T13:11:25;9.80;;;2.95;;
79454;SDS011;68900;52.134;5.420;2023-05-28T13:14:06;10.60;;;3.35;;
79454;SDS011;68900;52.134;5.420;2023-05-28T13:16:35;9.65;;;3.65;;
79454;SDS011;68900;52.134;5.420;2023-05-28T13:19:05;11.55;;;3.17;;
79454;SDS011;68900;52.134;5.420;2023-05-28T13:21:32;12.43;;;3.67;;
79454;SDS011;68900;52.134;5.420;2023-05-28T13:24:02;9.75;;;3.42;;
79454;SDS011;68900;52.134;5.420;2023-05-28T13:26:29;13.32;;;3.83;;
79454;SDS011;68900;52.134;5.420;2023-05-28T13:29:11;11.48;;;3.30;;
79454;SDS011;68900;52.134;5.420;2023-05-28T13:31:37;9.43;;;2.72;;
79454;SDS011;68900;52.134;5.420;2023-05-28T13:34:13;10.88;;;3.40;;
79454;SDS011;68900;52.134;5.420;2023-05-28T13:36:40;11.43;;;3.22;;
79454;SDS011;68900;52.134;5.420;2023-05-28T13:39:07;10.73;;;3.95;;
79454;SDS011;68900;52.134;5.420;2023-05-28T13:41:35;9.70;;;3.13;;
79454;SDS011;68900;52.134;5.420;2023-05-28T13:44:02;10.02;;;3.15;;
79454;SDS011;68900;52.134;5.420;2023-05-28T13:46:29;10.20;;;3.05;;
79454;SDS011;68900;52.134;5.420;2023-05-28T13:48:59;9.93;;;3.00;;
79454;SDS011;68900;52.134;5.420;2023-05-28T13:51:26;12.48;;;3.40;;
79454;SDS011;68900;52.134;5.420;2023-05-28T13:53:53;11.38;;;3.17;;
79454;SDS011;68900;52.134;5.420;2023-05-28T13:56:26;12.32;;;3.58;;
79454;SDS011;68900;52.134;5.420;2023-05-28T13:58:53;9.05;;;3.30;;
79454;SDS011;68900;52.134;5.420;2023-05-28T14:01:20;8.07;;;2.90;;
79454;SDS011;68900;52.134;5.420;2023-05-28T14:03:56;8.18;;;3.35;;
79454;SDS011;68900;52.134;5.420;2023-05-28T14:06:29;9.50;;;3.25;;
79454;SDS011;68900;52.134;5.420;2023-05-28T14:08:58;9.52;;;2.85;;
79454;SDS011;68900;52.134;5.420;2023-05-28T14:11:26;11.10;;;3.13;;
79454;SDS011;68900;52.134;5.420;2023-05-28T14:14:15;10.57;;;3.45;;
79454;SDS011;68900;52.134;5.420;2023-05-28T14:16:56;8.98;;;3.25;;
79454;SDS011;68900;52.134;5.420;2023-05-28T14:19:24;9.93;;;3.30;;
79454;SDS011;68900;52.134;5.420;2023-05-28T14:21:52;8.15;;;3.00;;
79454;SDS011;68900;52.134;5.420;2023-05-28T14:24:27;8.50;;;2.80;;
79454;SDS011;68900;52.134;5.420;2023-05-28T14:26:58;9.90;;;2.83;;
79454;SDS011;68900;52.134;5.420;2023-05-28T14:29:25;7.50;;;2.90;;
79454;SDS011;68900;52.134;5.420;2023-05-28T14:31:54;11.07;;;3.03;;
79454;SDS011;68900;52.134;5.420;2023-05-28T14:37:13;9.13;;;3.50;;
79454;SDS011;68900;52.134;5.420;2023-05-28T14:39:40;9.15;;;3.13;;
79454;SDS011;68900;52.134;5.420;2023-05-28T14:42:22;10.50;;;3.08;;
79454;SDS011;68900;52.134;5.420;2023-05-28T14:44:49;9.77;;;3.17;;
79454;SDS011;68900;52.134;5.420;2023-05-28T14:50:28;9.60;;;2.97;;
79454;SDS011;68900;52.134;5.420;2023-05-28T14:52:55;6.35;;;2.83;;
79454;SDS011;68900;52.134;5.420;2023-05-28T14:55:31;11.15;;;2.72;;
79454;SDS011;68900;52.134;5.420;2023-05-28T14:58:07;8.48;;;2.60;;
79454;SDS011;68900;52.134;5.420;2023-05-28T15:00:34;6.22;;;2.58;;
79454;SDS011;68900;52.134;5.420;2023-05-28T15:03:07;7.50;;;2.50;;
79454;SDS011;68900;52.134;5.420;2023-05-28T15:05:40;7.13;;;2.13;;
79454;SDS011;68900;52.134;5.420;2023-05-28T15:08:07;8.55;;;2.58;;
79454;SDS011;68900;52.134;5.420;2023-05-28T15:10:48;5.75;;;2.83;;
79454;SDS011;68900;52.134;5.420;2023-05-28T15:13:16;6.95;;;2.47;;
79454;SDS011;68900;52.134;5.420;2023-05-28T15:15:52;7.57;;;2.60;;
79454;SDS011;68900;52.134;5.420;2023-05-28T15:18:19;8.82;;;2.78;;
79454;SDS011;68900;52.134;5.420;2023-05-28T15:20:46;8.40;;;3.17;;
79454;SDS011;68900;52.134;5.420;2023-05-28T15:23:30;5.88;;;2.80;;
79454;SDS011;68900;52.134;5.420;2023-05-28T15:25:58;9.82;;;3.08;;
79454;SDS011;68900;52.134;5.420;2023-05-28T15:28:34;6.22;;;2.60;;
79454;SDS011;68900;52.134;5.420;2023-05-28T15:31:03;6.60;;;2.67;;
79454;SDS011;68900;52.134;5.420;2023-05-28T15:33:30;7.38;;;3.15;;
79454;SDS011;68900;52.134;5.420;2023-05-28T15:41:23;6.90;;;2.90;;
79454;SDS011;68900;52.134;5.420;2023-05-28T15:44:17;7.22;;;3.40;;
79454;SDS011;68900;52.134;5.420;2023-05-28T15:46:44;8.48;;;3.72;;
79454;SDS011;68900;52.134;5.420;2023-05-28T15:49:13;6.65;;;2.88;;
79454;SDS011;68900;52.134;5.420;2023-05-28T15:51:57;11.82;;;3.20;;
79454;SDS011;68900;52.134;5.420;2023-05-28T15:54:25;6.82;;;2.90;;
79454;SDS011;68900;52.134;5.420;2023-05-28T15:56:52;7.03;;;3.08;;
79454;SDS011;68900;52.134;5.420;2023-05-28T15:59:19;8.80;;;3.10;;
79454;SDS011;68900;52.134;5.420;2023-05-28T16:01:59;7.68;;;3.15;;
79454;SDS011;68900;52.134;5.420;2023-05-28T16:04:44;7.60;;;3.13;;
79454;SDS011;68900;52.134;5.420;2023-05-28T16:07:12;7.65;;;2.95;;
79454;SDS011;68900;52.134;5.420;2023-05-28T16:09:40;7.45;;;2.95;;
79454;SDS011;68900;52.134;5.420;2023-05-28T16:12:08;8.60;;;2.70;;
79454;SDS011;68900;52.134;5.420;2023-05-28T16:14:37;7.35;;;3.00;;
79454;SDS011;68900;52.134;5.420;2023-05-28T16:17:08;6.15;;;2.47;;
79454;SDS011;68900;52.134;5.420;2023-05-28T16:19:35;5.93;;;2.65;;
79454;SDS011;68900;52.134;5.420;2023-05-28T16:22:10;9.32;;;2.50;;
79454;SDS011;68900;52.134;5.420;2023-05-28T16:24:43;6.25;;;1.90;;
79454;SDS011;68900;52.134;5.420;2023-05-28T16:27:13;7.40;;;2.33;;
79454;SDS011;68900;52.134;5.420;2023-05-28T16:29:40;6.90;;;2.10;;
79454;SDS011;68900;52.134;5.420;2023-05-28T16:32:33;8.18;;;2.80;;
79454;SDS011;68900;52.134;5.420;2023-05-28T16:35:00;8.07;;;2.00;;
79454;SDS011;68900;52.134;5.420;2023-05-28T16:37:40;8.55;;;2.35;;